Terminal Aerodrome Forecast
Issued by NWS

Home | Current Version | Previous Version | Text Only | Print | Product List | Glossary On
Versions: 1 2 3 4 5 6 7 8 9 10 11 12 13 14 15 16 17 18 19 20 21 22
000
FTUS43 KDLH 200538
TAFBRD
TAF
KBRD 200538Z 2006/2106 07005KT P6SM OVC100
     FM201400 08008G15KT P6SM OVC070
     FM201800 07010G17KT P6SM -SHRA SCT025 OVC050
     FM202000 06012G19KT 6SM -RA SCT007 OVC015
     FM210000 04007KT 3SM -RA BR SCT003 OVC007=

USA.gov is the U.S. government's official web portal to all federal, state and local government web resources and services.